Stewartsville, Indiana
Current Conditions -  °F | °C
As of 3:55 AM on Friday 19 Dec 2014 (Local Time) from KCUL Reporting Station
Overcast Overcast  
Wind Chill: 33°   Ceiling: 4800
Heat Index: 33°   Visibility: 10mi
Dew Point: 29°   Wind: 3mph
Humidity: 88%   Direction: 350°N
Pressure: 30.29"   Gusts: NA
Location:  38.1775°N, 87.8268°W
Report Text: KCUL 190955Z AUTO 35003KT 10SM OVC048 00/M01 A3029 RMK AO2 T00031014
Loading
Personal Weather Stations






























Interactive Weather Map New forecast layout! Learn more

10-Day Weather Forecast

Advertisements
Track Severe Weather on mobile